Time;durP1;ratioP1;P1;durP2;ratioP2;P2;SDS_P1;SDS_P2;PMS_P1;PMS_P2;Temp;Humidity;BMP_temperature;BMP_pressure;BME280_temperature;BME280_humidity;BME280_pressure;Samples;Min_cycle;Max_cycle;Signal;HPM_P1;HPM_P2
2023/09/19 00:01:40;;;;;;;5.45;1.92;;;20.40;99.90;;;;;;5083487;27;20130;-78
2023/09/19 00:04:09;;;;;;;7.45;2.22;;;20.50;99.90;;;;;;5110439;27;20969;-81
2023/09/19 00:06:36;;;;;;;12.02;2.33;;;20.50;99.90;;;;;;5082946;27;20035;-79
2023/09/19 00:09:02;;;;;;;7.18;2.50;;;20.50;99.90;;;;;;5097173;27;20040;-80
2023/09/19 00:11:28;;;;;;;7.68;2.30;;;20.50;99.90;;;;;;5094963;27;20532;-80
2023/09/19 00:13:54;;;;;;;5.97;2.10;;;20.40;99.90;;;;;;5088318;27;20146;-78
2023/09/19 00:16:20;;;;;;;11.07;2.28;;;20.40;99.90;;;;;;5083585;28;20559;-81
2023/09/19 00:18:46;;;;;;;13.43;2.72;;;20.50;99.90;;;;;;5099812;27;20063;-80
2023/09/19 00:21:12;;;;;;;8.43;2.45;;;20.30;99.90;;;;;;5082685;28;20082;-77
2023/09/19 00:23:40;;;;;;;8.55;2.38;;;20.40;99.90;;;;;;5109519;27;20478;-79
2023/09/19 00:26:06;;;;;;;10.82;2.10;;;20.40;99.90;;;;;;5119465;27;20043;-79
2023/09/19 00:28:33;;;;;;;7.97;2.28;;;20.30;99.90;;;;;;5086138;28;20084;-82
2023/09/19 00:31:01;;;;;;;7.28;2.03;;;20.30;99.90;;;;;;5112012;27;20043;-79
2023/09/19 00:33:29;;;;;;;4.95;1.90;;;20.40;99.90;;;;;;5091818;28;20387;-80
2023/09/19 00:35:57;;;;;;;5.82;2.08;;;20.40;99.90;;;;;;5089713;27;20039;-80
2023/09/19 00:38:26;;;;;;;9.98;2.08;;;20.20;99.90;;;;;;5111748;27;20142;-83
2023/09/19 00:40:53;;;;;;;8.85;2.55;;;20.10;99.90;;;;;;5082291;27;20365;-80
2023/09/19 00:43:24;;;;;;;7.82;2.00;;;20.30;99.90;;;;;;5113684;27;20045;-80
2023/09/19 00:45:51;;;;;;;13.60;2.50;;;20.20;99.90;;;;;;5112740;27;20497;-79
2023/09/19 00:48:18;;;;;;;7.63;1.90;;;20.10;99.90;;;;;;5105176;27;20034;-79
2023/09/19 00:50:45;;;;;;;11.05;2.60;;;19.90;99.90;;;;;;5109751;27;20043;-77
2023/09/19 00:53:15;;;;;;;7.63;2.15;;;20.10;99.90;;;;;;5104752;27;20031;-80
2023/09/19 00:55:42;;;;;;;8.50;2.03;;;19.90;99.90;;;;;;5114400;27;20172;-81
2023/09/19 00:58:10;;;;;;;7.47;1.90;;;19.90;99.90;;;;;;5078170;27;20050;-78
2023/09/19 01:00:36;;;;;;;8.35;1.75;;;19.80;99.90;;;;;;5096323;28;20528;-79
2023/09/19 01:03:02;;;;;;;8.80;2.15;;;19.80;99.90;;;;;;5109195;27;20081;-78
2023/09/19 01:05:29;;;;;;;7.00;1.83;;;19.90;99.90;;;;;;5083537;28;20126;-79
2023/09/19 01:07:55;;;;;;;6.93;1.83;;;19.90;99.90;;;;;;5098302;27;20035;-81
2023/09/19 01:10:21;;;;;;;7.82;2.28;;;19.90;99.90;;;;;;5111288;27;20046;-82
2023/09/19 01:12:50;;;;;;;9.40;2.55;;;19.70;99.90;;;;;;5107084;27;20056;-80
2023/09/19 01:15:42;;;;;;;10.10;2.15;;;19.80;99.90;;;;;;5096793;27;20051;-81
2023/09/19 01:18:27;;;;;;;6.65;2.50;;;19.80;99.90;;;;;;5095770;27;20054;-82
2023/09/19 01:21:06;;;;;;;8.45;2.20;;;19.60;99.90;;;;;;5118972;27;20097;-82
2023/09/19 01:24:09;;;;;;;8.25;1.90;;;19.70;99.90;;;;;;5113858;27;20043;-80
2023/09/19 01:27:14;;;;;;;7.45;2.35;;;19.60;99.90;;;;;;5108366;27;20039;-80
2023/09/19 01:29:44;;;;;;;8.57;2.58;;;19.60;99.90;;;;;;5096316;27;20039;-82
2023/09/19 01:32:14;;;;;;;12.15;3.20;;;19.50;99.90;;;;;;5100236;27;20080;-81
2023/09/19 01:34:52;;;;;;;8.05;2.10;;;19.50;99.90;;;;;;5105590;27;20067;-79
2023/09/19 01:37:20;;;;;;;8.20;2.03;;;19.60;99.90;;;;;;5109059;27;20087;-80
2023/09/19 01:40:11;;;;;;;8.27;2.30;;;19.50;99.90;;;;;;5100808;27;20044;-80
2023/09/19 01:42:56;;;;;;;7.00;1.75;;;19.50;99.90;;;;;;5122493;27;20154;-80
2023/09/19 01:45:40;;;;;;;;;;;19.50;99.90;;;;;;5115804;27;20077;-78
2023/09/19 01:48:29;;;;;;;7.07;2.03;;;19.40;99.90;;;;;;5113494;27;20366;-81
2023/09/19 01:51:10;;;;;;;8.82;1.90;;;19.40;99.90;;;;;;5081400;28;20032;-78
2023/09/19 01:53:40;;;;;;;8.70;2.60;;;19.40;99.90;;;;;;5087981;27;20031;-78
2023/09/19 01:56:12;;;;;;;5.85;2.08;;;19.30;99.90;;;;;;5096226;27;20044;-80
2023/09/19 01:58:48;;;;;;;8.40;2.28;;;19.30;99.90;;;;;;5094708;27;20035;-81
2023/09/19 02:01:23;;;;;;;9.60;2.25;;;19.30;99.90;;;;;;5097309;27;20138;-79
2023/09/19 02:03:50;;;;;;;6.78;2.10;;;19.30;99.90;;;;;;5097085;27;20072;-78
2023/09/19 02:06:18;;;;;;;8.35;2.60;;;19.30;99.90;;;;;;5096504;27;20433;-82
2023/09/19 02:08:45;;;;;;;8.80;2.15;;;19.20;99.90;;;;;;5076899;28;20044;-78
2023/09/19 02:11:13;;;;;;;8.73;2.10;;;19.30;99.90;;;;;;5075511;27;20032;-80
2023/09/19 02:13:40;;;;;;;6.32;1.90;;;19.20;99.90;;;;;;5070095;27;20081;-79
2023/09/19 02:16:09;;;;;;;7.07;2.53;;;19.20;99.90;;;;;;5087053;27;20035;-80
2023/09/19 02:18:35;;;;;;;10.35;2.22;;;19.30;99.90;;;;;;5084081;27;20054;-79
2023/09/19 02:21:01;;;;;;;10.93;2.78;;;19.10;99.90;;;;;;5080015;27;20035;-82
2023/09/19 02:23:27;;;;;;;7.63;1.90;;;19.10;99.90;;;;;;5087534;27;20106;-77
2023/09/19 02:25:54;;;;;;;10.20;2.22;;;19.20;99.90;;;;;;5084778;27;20046;-79
2023/09/19 02:28:20;;;;;;;5.13;1.92;;;19.10;99.90;;;;;;5088358;27;20071;-81
2023/09/19 02:30:50;;;;;;;7.45;2.17;;;19.10;99.90;;;;;;5072794;27;20072;-79
2023/09/19 02:33:17;;;;;;;7.80;2.13;;;19.20;99.90;;;;;;5078400;27;20035;-79
2023/09/19 02:35:42;;;;;;;8.82;2.38;;;19.10;99.90;;;;;;5080728;27;20187;-78
2023/09/19 02:38:11;;;;;;;6.35;1.88;;;19.00;99.90;;;;;;5095267;27;20525;-82
2023/09/19 02:40:37;;;;;;;8.43;1.90;;;19.00;99.90;;;;;;5080723;27;20042;-81
2023/09/19 02:43:03;;;;;;;12.07;2.90;;;19.10;99.90;;;;;;5099001;28;20446;-78
2023/09/19 02:45:29;;;;;;;9.90;1.77;;;19.10;99.90;;;;;;5081340;27;20127;-78
2023/09/19 02:47:55;;;;;;;10.05;2.58;;;19.10;99.90;;;;;;5081215;27;20035;-79
2023/09/19 02:50:21;;;;;;;6.80;1.70;;;19.00;99.90;;;;;;5076007;28;20533;-79
2023/09/19 02:52:48;;;;;;;6.00;1.90;;;19.10;99.90;;;;;;5082859;27;20023;-78
2023/09/19 02:55:17;;;;;;;9.82;2.50;;;19.10;99.90;;;;;;5065611;27;20039;-77
2023/09/19 02:57:51;;;;;;;7.47;1.92;;;19.00;99.90;;;;;;5081298;27;20764;-78
2023/09/19 03:00:21;;;;;;;13.70;2.40;;;19.00;99.90;;;;;;5093287;27;20472;-77
2023/09/19 03:02:52;;;;;;;8.20;2.00;;;19.10;99.90;;;;;;5093192;27;20027;-80
2023/09/19 03:05:19;;;;;;;6.35;1.77;;;19.10;99.90;;;;;;5084199;27;20181;-78
2023/09/19 03:07:50;;;;;;;6.35;2.00;;;19.10;99.90;;;;;;5071680;27;20039;-78
2023/09/19 03:10:17;;;;;;;6.78;1.77;;;19.10;99.90;;;;;;5076818;27;20044;-78
2023/09/19 03:12:43;;;;;;;9.63;2.17;;;19.00;99.90;;;;;;5094113;27;20039;-84
2023/09/19 03:15:09;;;;;;;6.78;2.00;;;19.00;99.90;;;;;;5100024;27;20383;-79
2023/09/19 03:17:35;;;;;;;5.78;1.67;;;19.00;99.90;;;;;;5091472;27;20047;-81
2023/09/19 03:20:04;;;;;;;5.45;1.90;;;19.10;99.90;;;;;;5093925;27;20074;-79
2023/09/19 03:22:29;;;;;;;7.85;2.40;;;19.00;99.90;;;;;;5083656;27;20039;-79
2023/09/19 03:24:55;;;;;;;7.97;2.13;;;19.10;99.90;;;;;;5096874;27;20050;-83
2023/09/19 03:27:21;;;;;;;7.45;1.95;;;19.10;99.90;;;;;;5084897;28;20043;-79
2023/09/19 03:29:50;;;;;;;8.75;2.00;;;19.10;99.90;;;;;;5075596;27;20069;-82
2023/09/19 03:32:15;;;;;;;6.00;1.90;;;19.10;99.90;;;;;;5065285;27;20045;-80
2023/09/19 03:34:43;;;;;;;11.13;2.53;;;19.10;99.90;;;;;;5081533;27;20155;-80
2023/09/19 03:37:09;;;;;;;8.65;2.00;;;19.00;99.90;;;;;;5067635;27;20728;-81
2023/09/19 03:39:35;;;;;;;5.65;1.70;;;19.10;99.90;;;;;;5091967;28;20046;-83
2023/09/19 03:42:03;;;;;;;9.93;2.13;;;19.00;99.90;;;;;;5095041;27;20031;-77
2023/09/19 03:44:30;;;;;;;8.52;2.33;;;19.00;99.90;;;;;;5061435;28;20074;-79
2023/09/19 03:46:56;;;;;;;7.45;1.92;;;19.00;99.90;;;;;;5097785;27;20035;-80
2023/09/19 03:49:22;;;;;;;9.07;2.00;;;19.10;99.90;;;;;;5073955;27;20043;-82
2023/09/19 03:51:48;;;;;;;8.80;2.17;;;19.10;99.90;;;;;;5080427;28;20040;-79
2023/09/19 03:54:14;;;;;;;10.65;2.33;;;19.00;99.90;;;;;;5094783;27;20062;-77
2023/09/19 03:56:39;;;;;;;9.07;2.10;;;19.00;99.90;;;;;;5086891;27;20095;-79
2023/09/19 03:59:05;;;;;;;9.90;2.40;;;19.10;99.90;;;;;;5096723;27;20047;-77
2023/09/19 04:01:33;;;;;;;7.68;2.67;;;19.10;99.90;;;;;;5079474;27;20046;-77
2023/09/19 04:04:07;;;;;;;7.75;2.30;;;19.10;99.90;;;;;;5083843;27;20051;-79
2023/09/19 04:06:36;;;;;;;8.15;2.28;;;19.00;99.90;;;;;;5098326;27;20097;-79
2023/09/19 04:09:03;;;;;;;7.15;2.35;;;19.10;99.90;;;;;;5073527;28;20035;-77
2023/09/19 04:11:30;;;;;;;5.45;2.10;;;19.10;99.90;;;;;;5084488;28;20039;-79
2023/09/19 04:13:57;;;;;;;10.55;2.13;;;19.10;99.90;;;;;;5095877;27;20052;-80
2023/09/19 04:16:22;;;;;;;7.50;2.10;;;19.20;99.90;;;;;;5112230;27;20096;-80
2023/09/19 04:18:48;;;;;;;10.40;2.40;;;19.20;99.90;;;;;;5097365;27;20514;-80
2023/09/19 04:21:14;;;;;;;7.13;2.22;;;19.20;99.90;;;;;;5083068;27;20042;-81
2023/09/19 04:23:40;;;;;;;5.70;1.90;;;19.40;99.90;;;;;;5081948;28;20055;-82
2023/09/19 04:26:05;;;;;;;7.70;2.30;;;19.30;99.90;;;;;;5081852;28;20087;-80
2023/09/19 04:28:34;;;;;;;6.47;1.92;;;19.30;99.90;;;;;;5076265;28;20035;-83
2023/09/19 04:31:02;;;;;;;9.25;2.72;;;19.30;99.90;;;;;;5093881;28;20040;-83
2023/09/19 04:33:28;;;;;;;10.98;2.20;;;19.30;99.90;;;;;;5092341;28;20043;-78
2023/09/19 04:35:54;;;;;;;7.07;2.47;;;19.30;99.90;;;;;;5086011;28;20039;-80
2023/09/19 04:38:20;;;;;;;6.22;2.08;;;19.40;99.90;;;;;;5050201;28;20561;-78
2023/09/19 04:40:47;;;;;;;10.95;2.38;;;19.40;99.90;;;;;;5085705;28;20039;-79
2023/09/19 04:43:12;;;;;;;10.18;2.50;;;19.40;99.90;;;;;;5092497;28;20052;-76
2023/09/19 04:45:40;;;;;;;9.77;2.05;;;19.30;99.90;;;;;;5094654;27;20039;-78
2023/09/19 04:48:08;;;;;;;9.07;2.30;;;19.40;99.90;;;;;;5096096;27;20145;-80
2023/09/19 04:50:34;;;;;;;6.63;2.00;;;19.30;99.90;;;;;;5097185;27;20039;-79
2023/09/19 04:53:00;;;;;;;7.18;2.65;;;19.30;99.90;;;;;;5104608;27;20054;-77
2023/09/19 04:55:27;;;;;;;7.45;2.30;;;19.40;99.90;;;;;;5102395;27;20086;-79
2023/09/19 04:57:53;;;;;;;4.13;1.70;;;19.40;99.90;;;;;;5098669;27;20046;-80
2023/09/19 05:00:24;;;;;;;8.55;1.92;;;19.40;99.90;;;;;;5098833;27;20128;-79
2023/09/19 05:02:57;;;;;;;9.20;2.20;;;19.40;99.90;;;;;;5093848;27;20067;-77
2023/09/19 05:05:23;;;;;;;7.65;2.20;;;19.40;99.90;;;;;;5098099;27;20043;-80
2023/09/19 05:07:51;;;;;;;6.43;2.20;;;19.50;99.90;;;;;;5096213;27;20034;-79
2023/09/19 05:10:18;;;;;;;7.53;2.05;;;19.50;99.90;;;;;;5078121;27;20040;-80
2023/09/19 05:12:46;;;;;;;8.18;2.03;;;19.40;99.90;;;;;;5100059;27;20088;-81
2023/09/19 05:15:14;;;;;;;10.07;2.25;;;19.50;99.90;;;;;;5099546;27;20047;-81
2023/09/19 05:17:40;;;;;;;10.02;2.10;;;19.50;99.90;;;;;;5098033;27;20035;-78
2023/09/19 05:20:16;;;;;;;8.95;2.10;;;19.50;99.90;;;;;;5097021;27;20089;-83
2023/09/19 05:22:43;;;;;;;7.35;2.72;;;19.60;99.90;;;;;;5076247;27;20066;-82
2023/09/19 05:25:16;;;;;;;6.82;2.20;;;19.40;99.90;;;;;;5101567;27;20088;-79
2023/09/19 05:27:42;;;;;;;10.10;2.85;;;19.50;99.90;;;;;;5094710;27;20039;-80
2023/09/19 05:30:09;;;;;;;8.05;2.55;;;19.50;99.90;;;;;;5106969;27;20054;-79
2023/09/19 05:32:34;;;;;;;8.98;2.35;;;19.60;99.90;;;;;;5105794;27;20035;-81
2023/09/19 05:35:00;;;;;;;8.73;2.55;;;19.50;99.90;;;;;;5076100;27;20754;-81
2023/09/19 05:37:26;;;;;;;8.05;2.40;;;19.50;99.90;;;;;;5095210;27;20423;-80
2023/09/19 05:39:53;;;;;;;9.02;2.63;;;19.50;99.90;;;;;;5094241;27;20512;-78
2023/09/19 05:42:19;;;;;;;9.80;2.40;;;19.50;99.90;;;;;;5085118;27;20087;-78
2023/09/19 05:44:45;;;;;;;7.28;2.20;;;19.50;99.90;;;;;;5097403;27;20623;-80
2023/09/19 05:47:10;;;;;;;8.02;2.20;;;19.70;99.90;;;;;;5078882;27;20043;-77
2023/09/19 05:49:39;;;;;;;8.82;1.92;;;19.60;99.90;;;;;;5090254;27;20112;-79
2023/09/19 05:52:08;;;;;;;5.97;1.80;;;19.60;99.90;;;;;;5079834;27;20523;-78
2023/09/19 05:54:34;;;;;;;6.82;2.15;;;19.60;99.90;;;;;;5075263;27;20038;-78
2023/09/19 05:57:01;;;;;;;4.68;1.75;;;19.70;99.90;;;;;;5067426;27;20028;-77
2023/09/19 05:59:27;;;;;;;9.77;2.83;;;19.60;99.90;;;;;;5086227;27;20048;-78
2023/09/19 06:01:53;;;;;;;9.85;2.20;;;19.60;99.90;;;;;;5085094;27;20050;-80
2023/09/19 06:04:21;;;;;;;9.55;3.25;;;19.70;99.90;;;;;;5081800;27;20039;-83
2023/09/19 06:06:48;;;;;;;17.67;3.70;;;19.60;99.90;;;;;;5102139;27;20042;-82
2023/09/19 06:09:14;;;;;;;13.18;2.65;;;19.70;99.90;;;;;;5078688;27;20042;-80
2023/09/19 06:11:42;;;;;;;10.43;2.80;;;19.60;99.90;;;;;;5094906;27;20036;-80
2023/09/19 06:14:10;;;;;;;10.15;2.33;;;19.70;99.90;;;;;;5078617;28;20048;-81
2023/09/19 06:16:38;;;;;;;9.23;2.47;;;19.80;99.90;;;;;;5091918;28;20621;-82
2023/09/19 06:19:06;;;;;;;8.60;2.08;;;19.90;99.90;;;;;;5080308;28;20049;-77
2023/09/19 06:21:32;;;;;;;8.55;2.75;;;19.90;99.90;;;;;;5097447;28;20048;-81
2023/09/19 06:23:57;;;;;;;11.15;2.72;;;19.80;99.90;;;;;;5089035;28;20030;-77
2023/09/19 06:26:26;;;;;;;9.52;2.80;;;20.00;99.90;;;;;;5089157;28;20126;-77
2023/09/19 06:28:52;;;;;;;12.02;2.50;;;20.00;99.90;;;;;;5090718;28;20035;-80
2023/09/19 06:31:18;;;;;;;7.15;1.95;;;20.00;99.90;;;;;;5086671;28;20078;-76
2023/09/19 06:33:47;;;;;;;9.18;2.10;;;19.90;99.90;;;;;;5089222;28;20043;-78
2023/09/19 06:36:25;;;;;;;12.85;2.60;;;20.00;99.90;;;;;;5049560;28;20396;-81
2023/09/19 06:38:51;;;;;;;9.98;2.10;;;20.00;99.90;;;;;;5096722;28;20043;-77
2023/09/19 06:41:17;;;;;;;7.20;2.28;;;20.10;99.90;;;;;;5081785;28;20042;-77
2023/09/19 06:43:43;;;;;;;11.35;2.60;;;20.10;99.90;;;;;;5085789;28;20064;-81
2023/09/19 06:46:09;;;;;;;10.00;2.70;;;20.10;99.90;;;;;;5098818;28;20047;-80
2023/09/19 06:48:35;;;;;;;11.95;2.72;;;20.20;99.90;;;;;;5091592;27;20047;-78
2023/09/19 06:51:05;;;;;;;8.30;2.58;;;20.10;99.90;;;;;;5083351;28;20575;-79
2023/09/19 06:53:35;;;;;;;8.07;2.20;;;20.30;99.90;;;;;;5082610;28;20035;-82
2023/09/19 06:56:02;;;;;;;11.13;2.58;;;20.20;99.90;;;;;;5096098;28;20084;-80
2023/09/19 06:58:27;;;;;;;8.00;2.50;;;20.30;99.90;;;;;;5075230;28;20055;-76
2023/09/19 07:00:54;;;;;;;7.07;2.08;;;20.30;99.90;;;;;;5083124;28;20036;-78
2023/09/19 07:03:21;;;;;;;9.68;2.83;;;20.40;99.90;;;;;;5094012;28;20040;-79
2023/09/19 07:05:48;;;;;;;7.50;2.28;;;20.40;99.90;;;;;;5070688;28;20540;-79
2023/09/19 07:08:15;;;;;;;9.85;2.63;;;20.40;99.90;;;;;;5087534;28;20398;-79
2023/09/19 07:10:44;;;;;;;10.07;2.40;;;20.50;99.90;;;;;;5078377;28;20031;-81
2023/09/19 07:13:10;;;;;;;12.23;2.70;;;20.50;99.90;;;;;;5037199;27;1487901;-82
2023/09/19 07:15:46;;;;;;;8.07;2.78;;;20.60;99.90;;;;;;5092913;28;20376;-79
2023/09/19 07:18:16;;;;;;;4.40;2.00;;;20.70;99.90;;;;;;5086653;27;20031;-80
2023/09/19 07:20:49;;;;;;;8.60;2.33;;;20.70;99.90;;;;;;5091811;27;20122;-80
2023/09/19 07:23:26;;;;;;;11.73;2.90;;;20.70;99.90;;;;;;5084830;27;20039;-77
2023/09/19 07:25:52;;;;;;;9.93;2.50;;;20.80;99.90;;;;;;5063318;27;20035;-83
2023/09/19 07:28:18;;;;;;;10.65;3.00;;;20.80;99.90;;;;;;5080754;27;20050;-77
2023/09/19 07:30:43;;;;;;;8.95;2.35;;;20.80;99.90;;;;;;5091969;27;20036;-82
2023/09/19 07:33:12;;;;;;;9.65;2.50;;;20.80;99.90;;;;;;5078155;27;20047;-78
2023/09/19 07:35:40;;;;;;;7.53;2.38;;;20.80;99.90;;;;;;5081691;27;20035;-79
2023/09/19 07:38:06;;;;;;;9.63;2.47;;;20.80;99.90;;;;;;5077882;27;20086;-79
2023/09/19 07:40:32;;;;;;;9.07;2.50;;;20.80;99.90;;;;;;5084586;27;20322;-83
2023/09/19 07:43:01;;;;;;;11.43;2.58;;;20.80;99.90;;;;;;5066517;28;20131;-79
2023/09/19 07:45:29;;;;;;;9.63;2.83;;;20.90;99.90;;;;;;5074059;27;20043;-81
2023/09/19 07:47:55;;;;;;;7.63;2.30;;;20.90;99.90;;;;;;5099368;28;20036;-83
2023/09/19 07:50:21;;;;;;;6.93;2.40;;;21.00;99.90;;;;;;5077262;27;20046;-81
2023/09/19 07:52:50;;;;;;;7.22;2.42;;;21.10;99.90;;;;;;5094236;27;20035;-80
2023/09/19 07:55:17;;;;;;;8.82;2.40;;;21.10;99.90;;;;;;5081350;27;21475;-80
2023/09/19 07:57:49;;;;;;;14.68;2.90;;;21.10;99.90;;;;;;5103437;27;20099;-80
2023/09/19 08:00:15;;;;;;;7.57;2.10;;;21.10;99.90;;;;;;5062901;27;20361;-81
2023/09/19 08:02:42;;;;;;;9.57;2.60;;;21.10;99.90;;;;;;5090322;27;20368;-79
2023/09/19 08:05:15;;;;;;;8.55;2.40;;;21.10;99.90;;;;;;5074546;28;20073;-80
2023/09/19 08:07:43;;;;;;;9.45;2.67;;;21.10;99.90;;;;;;5102560;27;20083;-79
2023/09/19 08:10:13;;;;;;;8.48;2.13;;;21.10;99.90;;;;;;5086625;28;20043;-81
2023/09/19 08:12:46;;;;;;;12.27;3.35;;;21.00;99.90;;;;;;5061782;27;20034;-81
2023/09/19 08:15:16;;;;;;;12.45;3.38;;;21.00;99.90;;;;;;5085402;28;20189;-85
2023/09/19 08:17:42;;;;;;;10.27;2.80;;;21.10;99.90;;;;;;5093040;27;20039;-80
2023/09/19 08:20:15;;;;;;;8.60;2.63;;;21.30;99.90;;;;;;5093466;27;20070;-79
2023/09/19 08:22:52;;;;;;;7.22;2.60;;;21.40;99.90;;;;;;5110391;27;20049;-80
2023/09/19 08:25:19;;;;;;;7.18;2.38;;;21.40;99.90;;;;;;5106754;28;20038;-80
2023/09/19 08:27:48;;;;;;;8.23;2.10;;;21.40;99.90;;;;;;5094541;28;20453;-83
2023/09/19 08:30:15;;;;;;;11.00;2.10;;;21.60;99.90;;;;;;5112603;28;20589;-81
2023/09/19 08:32:42;;;;;;;8.65;2.30;;;21.50;99.90;;;;;;5073739;28;20371;-82
2023/09/19 08:35:09;;;;;;;5.88;1.85;;;21.70;99.90;;;;;;5074843;28;20141;-82
2023/09/19 08:37:35;;;;;;;6.65;2.67;;;21.70;99.90;;;;;;5067138;28;20634;-81
2023/09/19 08:40:01;;;;;;;11.45;2.70;;;21.70;99.90;;;;;;5110873;28;20043;-83
2023/09/19 08:42:27;;;;;;;12.88;2.50;;;21.80;99.90;;;;;;5091454;28;20110;-84
2023/09/19 08:44:55;;;;;;;5.95;1.80;;;21.70;99.90;;;;;;5103618;28;20810;-82
2023/09/19 08:47:44;;;;;;;9.23;2.45;;;21.80;99.90;;;;;;5094260;28;20482;-83
2023/09/19 08:50:19;;;;;;;8.02;2.20;;;21.80;99.90;;;;;;5088997;28;20051;-81
2023/09/19 08:52:46;;;;;;;;;;;21.80;99.90;;;;;;5108101;28;20066;-80
2023/09/19 08:55:19;;;;;;;10.02;2.63;;;21.90;99.90;;;;;;5091813;28;19976;-83
2023/09/19 08:57:48;;;;;;;7.32;2.15;;;21.90;99.90;;;;;;5077691;28;20164;-82
2023/09/19 09:00:18;;;;;;;6.93;2.15;;;21.90;99.90;;;;;;5111724;28;20053;-82
2023/09/19 09:02:44;;;;;;;7.82;2.08;;;22.00;99.90;;;;;;5066847;28;20050;-85
2023/09/19 09:05:11;;;;;;;6.88;2.25;;;22.00;99.90;;;;;;5107729;28;20046;-81
2023/09/19 09:07:38;;;;;;;8.05;2.08;;;21.90;99.90;;;;;;5103266;28;20028;-83
2023/09/19 09:10:04;;;;;;;9.82;2.15;;;22.00;99.90;;;;;;5102688;28;20484;-82
2023/09/19 09:12:30;;;;;;;10.25;2.67;;;22.00;99.90;;;;;;5070405;28;20036;-80
2023/09/19 09:14:57;;;;;;;7.57;2.03;;;22.20;99.90;;;;;;5090114;28;20110;-85
2023/09/19 09:17:26;;;;;;;6.80;2.38;;;22.30;99.90;;;;;;5068688;28;20047;-83
2023/09/19 09:19:55;;;;;;;8.13;3.03;;;22.40;99.90;;;;;;5102992;28;20048;-83
2023/09/19 09:22:21;;;;;;;5.75;2.60;;;22.30;99.90;;;;;;5102588;28;20031;-81
2023/09/19 09:25:04;;;;;;;7.90;2.45;;;22.20;99.90;;;;;;5107187;28;20073;-82
2023/09/19 09:27:31;;;;;;;8.57;2.80;;;22.20;99.90;;;;;;5104783;28;20043;-83
2023/09/19 09:29:57;;;;;;;8.65;2.88;;;22.30;99.90;;;;;;5086138;28;20031;-80
2023/09/19 09:32:25;;;;;;;13.52;3.30;;;22.30;99.90;;;;;;5104813;27;20534;-82
2023/09/19 09:34:59;;;;;;;9.60;3.20;;;22.30;99.90;;;;;;5113217;27;20061;-83
2023/09/19 09:37:28;;;;;;;;;;;22.40;99.90;;;;;;5086657;28;20096;-78
2023/09/19 09:42:40;;;;;;;10.02;3.30;;;22.50;99.90;;;;;;5109986;28;20453;-83
2023/09/19 09:45:15;;;;;;;9.93;3.67;;;22.60;99.90;;;;;;5093652;27;20484;-83
2023/09/19 09:47:49;;;;;;;7.88;3.92;;;22.80;99.90;;;;;;5089752;28;20043;-79
2023/09/19 09:50:51;;;;;;;11.32;3.20;;;23.10;99.90;;;;;;5077963;27;20122;-81
2023/09/19 09:53:30;;;;;;;7.60;2.65;;;23.30;99.90;;;;;;5101511;27;20146;-87
2023/09/19 09:55:59;;;;;;;12.50;3.20;;;23.40;99.90;;;;;;5076624;28;20071;-79
2023/09/19 09:58:29;;;;;;;10.27;2.65;;;23.50;99.90;;;;;;5112427;27;20039;-84
2023/09/19 10:00:57;;;;;;;7.55;2.25;;;23.40;99.90;;;;;;5116749;27;20031;-78
2023/09/19 10:03:38;;;;;;;10.48;2.60;;;23.50;99.90;;;;;;5080194;27;20043;-86
2023/09/19 10:06:24;;;;;;;7.57;2.60;;;23.50;99.90;;;;;;5115133;27;20030;-83
2023/09/19 10:09:11;;;;;;;8.00;2.58;;;23.40;99.90;;;;;;5097183;27;20122;-83
2023/09/19 10:12:02;;;;;;;9.95;2.47;;;23.50;99.90;;;;;;5096128;27;20554;-80
2023/09/19 10:14:34;;;;;;;8.50;2.95;;;23.60;99.90;;;;;;5096369;27;20051;-80
2023/09/19 10:17:04;;;;;;;9.70;3.35;;;23.90;99.90;;;;;;5088582;28;20035;-81
2023/09/19 10:19:37;;;;;;;10.30;3.15;;;23.80;99.90;;;;;;5110699;27;20046;-79
2023/09/19 10:22:05;;;;;;;14.65;3.00;;;23.90;99.90;;;;;;5075963;28;20036;-84
2023/09/19 10:24:34;;;;;;;11.10;2.83;;;23.90;99.90;;;;;;5103241;27;20402;-82
2023/09/19 10:27:03;;;;;;;8.73;2.20;;;24.10;99.90;;;;;;5088505;27;20051;-79
2023/09/19 10:29:32;;;;;;;9.38;2.90;;;24.10;99.90;;;;;;5088147;27;20399;-83
2023/09/19 10:31:59;;;;;;;10.88;2.67;;;24.00;99.90;;;;;;5096557;27;20046;-78
2023/09/19 10:34:26;;;;;;;10.85;2.70;;;24.10;99.90;;;;;;5079854;27;20069;-81
2023/09/19 10:36:53;;;;;;;8.57;2.60;;;24.30;99.90;;;;;;5112934;27;20039;-81
2023/09/19 10:39:19;;;;;;;11.70;2.75;;;24.40;99.90;;;;;;5080633;28;20039;-79
2023/09/19 10:41:58;;;;;;;10.73;2.60;;;24.30;99.90;;;;;;5087962;27;20041;-84
2023/09/19 10:44:25;;;;;;;9.95;2.90;;;24.30;99.90;;;;;;5111456;27;20491;-82
2023/09/19 10:46:52;;;;;;;13.88;3.35;;;24.30;99.90;;;;;;5074832;28;20032;-85
2023/09/19 10:49:22;;;;;;;6.45;2.70;;;24.30;99.90;;;;;;5092925;27;20072;-79
2023/09/19 10:51:51;;;;;;;11.25;2.60;;;24.30;99.90;;;;;;5071452;27;20413;-85
2023/09/19 10:54:19;;;;;;;8.20;2.65;;;24.20;99.90;;;;;;5106451;28;20093;-81
2023/09/19 10:56:53;;;;;;;9.02;2.70;;;24.20;99.90;;;;;;5094807;27;20522;-82
2023/09/19 10:59:21;;;;;;;12.30;2.40;;;24.40;99.90;;;;;;5068581;28;20410;-79
2023/09/19 11:01:58;;;;;;;6.47;2.70;;;24.40;99.90;;;;;;5095181;27;20145;-80
2023/09/19 11:04:30;;;;;;;9.57;2.33;;;24.20;99.90;;;;;;5112491;27;20039;-82
2023/09/19 11:07:04;;;;;;;8.15;2.33;;;24.40;99.90;;;;;;5104146;28;20040;-79
2023/09/19 11:09:47;;;;;;;13.95;3.22;;;24.50;99.90;;;;;;5091430;28;20492;-79
2023/09/19 11:12:32;;;;;;;11.23;3.30;;;24.20;99.90;;;;;;5100726;27;20042;-80
2023/09/19 11:14:58;;;;;;;9.10;2.85;;;24.70;99.90;;;;;;5080026;28;20048;-81
2023/09/19 11:17:52;;;;;;;9.32;3.17;;;24.20;99.90;;;;;;5091054;27;20138;-81
2023/09/19 11:20:35;;;;;;;13.15;2.95;;;24.10;99.90;;;;;;5076650;27;20032;-84
2023/09/19 11:23:22;;;;;;;8.38;2.63;;;24.20;99.90;;;;;;5087472;28;20080;-83
2023/09/19 11:25:48;;;;;;;7.72;2.63;;;24.20;99.90;;;;;;5082021;28;20105;-83
2023/09/19 11:28:21;;;;;;;10.35;2.85;;;24.10;99.90;;;;;;5071569;28;20040;-84
2023/09/19 11:30:55;;;;;;;9.07;2.65;;;24.00;99.90;;;;;;5101127;27;20071;-86
2023/09/19 11:33:31;;;;;;;10.38;3.33;;;24.20;99.90;;;;;;5091717;28;20046;-85
2023/09/19 11:36:06;;;;;;;7.85;2.50;;;24.00;99.90;;;;;;5085986;27;21043;-83
2023/09/19 11:41:29;;;;;;;10.82;3.03;;;23.90;99.90;;;;;;5097127;27;20071;-83
2023/09/19 11:44:03;;;;;;;12.88;2.88;;;23.90;99.90;;;;;;5086833;27;20039;-81
2023/09/19 11:46:48;;;;;;;10.82;2.88;;;24.00;99.90;;;;;;5103238;27;20035;-82
2023/09/19 11:49:20;;;;;;;;;;;23.90;99.90;;;;;;5104618;27;20046;-81
2023/09/19 11:51:47;;;;;;;5.93;2.05;;;23.90;99.90;;;;;;5092326;27;19919;-83
2023/09/19 11:54:21;;;;;;;7.68;2.40;;;23.80;99.90;;;;;;5091237;28;20677;-82
2023/09/19 11:56:55;;;;;;;4.47;1.67;;;23.90;99.90;;;;;;5079653;27;20039;-78
2023/09/19 11:59:22;;;;;;;10.95;2.67;;;24.00;99.90;;;;;;5097690;27;20039;-81
2023/09/19 12:02:02;;;;;;;12.57;2.70;;;23.90;99.90;;;;;;5078839;27;20050;-81
2023/09/19 12:04:41;;;;;;;7.22;2.63;;;24.00;99.90;;;;;;5088630;27;20655;-84
2023/09/19 12:07:15;;;;;;;11.13;3.33;;;23.90;99.90;;;;;;5079592;27;20075;-85
2023/09/19 12:09:50;;;;;;;6.90;2.42;;;24.00;99.90;;;;;;5100027;28;20040;-84
2023/09/19 12:12:44;;;;;;;11.18;2.92;;;23.90;99.90;;;;;;5111180;27;20039;-81
2023/09/19 12:15:11;;;;;;;7.67;2.43;;;23.90;99.90;;;;;;5110828;27;20063;-84
2023/09/19 12:17:42;;;;;;;9.15;2.50;;;23.80;99.90;;;;;;5097517;28;20039;-83
2023/09/19 12:20:16;;;;;;;10.20;3.40;;;23.80;99.90;;;;;;5084668;28;20040;-83
2023/09/19 12:22:43;;;;;;;9.65;2.40;;;23.90;99.90;;;;;;5070976;28;20138;-80
2023/09/19 12:25:11;;;;;;;7.65;2.45;;;23.90;99.90;;;;;;5068255;27;20046;-82
2023/09/19 12:27:49;;;;;;;14.23;2.83;;;23.80;99.90;;;;;;5094794;27;20070;-82
2023/09/19 12:30:17;;;;;;;14.23;2.95;;;23.80;99.90;;;;;;5111399;27;20114;-82
2023/09/19 12:32:44;;;;;;;7.55;2.30;;;23.80;99.90;;;;;;5090000;28;20067;-80
2023/09/19 12:35:12;;;;;;;6.38;2.30;;;23.80;99.90;;;;;;5092918;28;20035;-81
2023/09/19 12:37:52;;;;;;;8.70;2.58;;;23.70;99.90;;;;;;5074407;28;20093;-81
2023/09/19 12:40:33;;;;;;;12.38;2.53;;;23.70;99.90;;;;;;5078270;28;20172;-79
2023/09/19 12:43:00;;;;;;;9.43;2.40;;;23.60;99.90;;;;;;5101660;28;20050;-84
2023/09/19 12:45:27;;;;;;;6.07;1.85;;;23.60;99.90;;;;;;5078708;28;20038;-80
2023/09/19 12:48:22;;;;;;;6.78;2.28;;;23.60;99.90;;;;;;5110979;28;20420;-80
2023/09/19 12:51:05;;;;;;;6.93;2.55;;;23.70;99.90;;;;;;5107432;28;20071;-80
2023/09/19 12:53:37;;;;;;;6.90;2.38;;;23.80;99.90;;;;;;5087379;28;20068;-81
2023/09/19 12:56:08;;;;;;;16.55;2.55;;;23.80;99.90;;;;;;5090947;28;20099;-80
2023/09/19 12:58:47;;;;;;;5.82;2.00;;;23.80;99.90;;;;;;5090623;28;20051;-82
2023/09/19 13:01:17;;;;;;;7.57;2.30;;;23.80;99.90;;;;;;5090144;28;20117;-81
2023/09/19 13:03:43;;;;;;;8.07;2.17;;;23.80;99.90;;;;;;5086707;28;20076;-80
2023/09/19 13:06:09;;;;;;;7.25;2.42;;;23.90;99.90;;;;;;5091936;27;20043;-81